Terminal Aerodrome Forecast
Issued by NWS Sterling, VA

Home | Current Version | Previous Version | Text Only | Print | Product List | Glossary On
Versions: 1 2 3 4 5 6 7 8 9 10 11 12 13 14 15 16 17 18 19
000
FTUS41 KLWX 281735 AAF
TAFCHO
TAF AMD
KCHO 281735Z 2818/2918 14005KT P6SM -SHRA OVC015
     FM281900 14005KT 5SM SHRA OVC020
     FM290200 VRB03KT 5SM SHRA BKN025
     FM290600 VRB03KT P6SM BKN008
     FM291200 24004KT P6SM BKN005
     FM291500 26006KT P6SM BKN045=

USA.gov is the U.S. government's official web portal to all federal, state and local government web resources and services.